createdAt,value
2022-10-04T00:08:49.833Z,51.30
2022-10-04T00:19:20.963Z,51.30
2022-10-04T00:29:38.665Z,51.30
2022-10-04T00:39:47.168Z,50.90
2022-10-04T00:49:56.220Z,50.90
2022-10-04T01:00:08.105Z,50.90
2022-10-04T01:10:23.518Z,50.70
2022-10-04T01:20:38.054Z,50.80
2022-10-04T01:30:40.042Z,50.80
2022-10-04T01:40:53.467Z,51.00
2022-10-04T01:51:04.737Z,50.90
2022-10-04T02:01:11.877Z,51.00
2022-10-04T02:11:20.288Z,51.00
2022-10-04T02:21:23.979Z,51.00
2022-10-04T02:31:46.105Z,50.90
2022-10-04T02:41:53.971Z,50.80
2022-10-04T02:52:04.761Z,51.60
2022-10-04T03:02:29.412Z,50.80
2022-10-04T03:12:33.650Z,50.90
2022-10-04T03:22:35.479Z,50.80
2022-10-04T03:32:38.641Z,50.80
2022-10-04T03:42:40.981Z,50.80
2022-10-04T03:52:50.700Z,50.60
2022-10-04T04:03:03.794Z,50.60
2022-10-04T04:13:11.053Z,50.80
2022-10-04T04:23:15.854Z,50.90
2022-10-04T04:33:41.700Z,50.80
2022-10-04T04:43:44.864Z,50.80
2022-10-04T04:53:47.978Z,50.70
2022-10-04T05:04:08.629Z,50.50
2022-10-04T05:14:14.091Z,50.50
2022-10-04T05:24:21.813Z,50.50
2022-10-04T05:34:30.489Z,50.30
2022-10-04T05:44:44.695Z,50.10
2022-10-04T05:54:46.559Z,50.00
2022-10-04T06:05:29.190Z,49.80
2022-10-04T06:15:49.499Z,49.90
2022-10-04T06:25:57.118Z,49.70
2022-10-04T06:36:17.020Z,49.60
2022-10-04T06:46:37.761Z,49.40
2022-10-04T06:57:13.253Z,49.60
2022-10-04T07:07:35.753Z,49.40
2022-10-04T07:17:42.036Z,49.50
2022-10-04T07:28:27.731Z,49.20
2022-10-04T07:38:34.135Z,49.30
2022-10-04T07:48:40.725Z,49.30
2022-10-04T07:59:20.020Z,49.10
2022-10-04T08:09:30.828Z,49.40
2022-10-04T08:19:41.563Z,49.60
2022-10-04T08:29:51.524Z,49.70
2022-10-04T08:40:24.439Z,50.00
2022-10-04T08:50:35.088Z,50.10
2022-10-04T09:00:51.903Z,50.20
2022-10-04T09:11:36.045Z,50.30
2022-10-04T09:21:46.676Z,50.40
2022-10-04T09:31:51.230Z,50.50
2022-10-04T09:41:56.060Z,50.60
2022-10-04T09:52:31.671Z,50.60
2022-10-04T10:03:15.546Z,50.90
2022-10-04T10:13:43.045Z,51.10
2022-10-04T10:24:06.170Z,51.30
2022-10-04T10:34:16.875Z,51.30
2022-10-04T10:44:46.338Z,51.30
2022-10-04T10:54:48.510Z,51.30
2022-10-04T11:04:55.754Z,51.50
2022-10-04T11:15:38.421Z,51.40
2022-10-04T11:26:05.191Z,51.50
2022-10-04T11:36:16.129Z,51.30
2022-10-04T11:46:55.451Z,51.40
2022-10-04T11:57:14.966Z,51.30
2022-10-04T12:07:40.871Z,51.40
2022-10-04T12:18:06.159Z,51.40
2022-10-04T12:28:29.205Z,51.50
2022-10-04T12:38:57.524Z,51.40
2022-10-04T12:49:31.773Z,51.50
2022-10-04T12:59:44.274Z,51.10
2022-10-04T13:10:23.464Z,51.10
2022-10-04T13:20:52.766Z,50.90
2022-10-04T13:31:04.229Z,51.70
2022-10-04T13:41:43.583Z,51.10
2022-10-04T13:52:55.462Z,50.90
2022-10-04T14:03:16.196Z,50.80
2022-10-04T14:13:53.402Z,51.10
2022-10-04T14:24:14.019Z,51.20
2022-10-04T14:34:35.732Z,51.50
2022-10-04T14:44:46.637Z,51.90
2022-10-04T14:54:52.379Z,52.20
2022-10-04T15:05:22.842Z,52.30
2022-10-04T15:15:36.288Z,52.60
2022-10-04T15:25:48.661Z,52.70
2022-10-04T15:35:59.520Z,52.90
2022-10-04T15:46:26.825Z,53.20
2022-10-04T15:56:44.636Z,53.10
2022-10-04T16:06:55.774Z,53.20
2022-10-04T16:17:38.843Z,53.80
2022-10-04T16:27:40.645Z,53.30
2022-10-04T16:37:56.531Z,53.30
2022-10-04T16:48:15.058Z,53.20
2022-10-04T16:58:30.669Z,53.10
2022-10-04T17:08:49.833Z,53.00
2022-10-04T17:18:52.021Z,53.10
2022-10-04T17:29:21.722Z,52.90
2022-10-04T17:39:42.087Z,52.90
2022-10-04T17:50:13.330Z,52.50
2022-10-04T18:00:18.867Z,52.80
2022-10-04T18:10:37.947Z,52.90
2022-10-04T18:21:02.170Z,52.90
2022-10-04T18:31:30.388Z,53.10
2022-10-04T18:41:58.285Z,52.80
2022-10-04T18:52:12.158Z,52.90
2022-10-04T19:02:47.939Z,52.90
2022-10-04T19:12:57.236Z,52.50
2022-10-04T19:23:28.044Z,52.50
2022-10-04T19:33:36.061Z,52.10
2022-10-04T19:43:53.931Z,52.10
2022-10-04T19:54:03.798Z,51.90
2022-10-04T20:04:35.350Z,51.80
2022-10-04T20:14:40.014Z,52.80
2022-10-04T20:24:41.746Z,52.30
2022-10-04T20:34:43.532Z,52.10
2022-10-04T20:44:55.151Z,52.20
2022-10-04T20:54:58.916Z,52.10
2022-10-04T21:05:26.014Z,52.20
2022-10-04T21:15:27.868Z,52.10
2022-10-04T21:25:32.080Z,52.20
2022-10-04T21:35:33.872Z,52.10
2022-10-04T21:45:35.669Z,52.80
2022-10-04T21:55:37.488Z,52.10
2022-10-04T22:05:39.288Z,52.30
2022-10-04T22:15:41.595Z,52.00
2022-10-04T22:25:43.374Z,52.10
2022-10-04T22:35:45.128Z,52.10
2022-10-04T22:45:46.909Z,52.20
2022-10-04T22:55:52.401Z,52.00
2022-10-04T23:05:54.200Z,52.10
2022-10-04T23:16:00.399Z,52.00
2022-10-04T23:26:02.296Z,52.20
2022-10-04T23:36:09.455Z,52.00
2022-10-04T23:46:16.705Z,52.20
2022-10-04T23:56:23.203Z,52.20
